sensor_id;sensor_type;location;lat;lon;timestamp;P1;durP1;ratioP1;P2;durP2;ratioP2
30303;SDS011;17112;48.636;10.152;2024-03-06T00:00:09;5.63;;;3.88;;
30303;SDS011;17112;48.636;10.152;2024-03-06T00:02:35;7.10;;;4.13;;
30303;SDS011;17112;48.636;10.152;2024-03-06T00:05:01;6.00;;;3.85;;
30303;SDS011;17112;48.636;10.152;2024-03-06T00:07:27;5.40;;;3.50;;
30303;SDS011;17112;48.636;10.152;2024-03-06T00:09:53;4.85;;;3.63;;
30303;SDS011;17112;48.636;10.152;2024-03-06T00:12:19;5.55;;;3.10;;
30303;SDS011;17112;48.636;10.152;2024-03-06T00:14:44;6.30;;;3.60;;
30303;SDS011;17112;48.636;10.152;2024-03-06T00:17:10;6.15;;;3.30;;
30303;SDS011;17112;48.636;10.152;2024-03-06T00:19:36;6.18;;;3.60;;
30303;SDS011;17112;48.636;10.152;2024-03-06T00:22:01;6.10;;;3.70;;
30303;SDS011;17112;48.636;10.152;2024-03-06T00:24:27;7.78;;;3.83;;
30303;SDS011;17112;48.636;10.152;2024-03-06T00:26:53;5.32;;;3.80;;
30303;SDS011;17112;48.636;10.152;2024-03-06T00:29:19;4.88;;;3.13;;
30303;SDS011;17112;48.636;10.152;2024-03-06T00:31:45;6.38;;;3.72;;
30303;SDS011;17112;48.636;10.152;2024-03-06T00:34:11;6.70;;;3.85;;
30303;SDS011;17112;48.636;10.152;2024-03-06T00:36:42;5.20;;;3.65;;
30303;SDS011;17112;48.636;10.152;2024-03-06T00:39:11;6.35;;;3.28;;
30303;SDS011;17112;48.636;10.152;2024-03-06T00:41:39;4.78;;;3.90;;
30303;SDS011;17112;48.636;10.152;2024-03-06T00:44:05;6.03;;;3.33;;
30303;SDS011;17112;48.636;10.152;2024-03-06T00:46:31;6.20;;;3.88;;
30303;SDS011;17112;48.636;10.152;2024-03-06T00:48:57;5.50;;;3.55;;
30303;SDS011;17112;48.636;10.152;2024-03-06T00:51:23;7.25;;;3.95;;
30303;SDS011;17112;48.636;10.152;2024-03-06T00:53:49;7.70;;;4.13;;
30303;SDS011;17112;48.636;10.152;2024-03-06T00:56:14;7.22;;;4.30;;
30303;SDS011;17112;48.636;10.152;2024-03-06T00:58:40;6.22;;;4.07;;
30303;SDS011;17112;48.636;10.152;2024-03-06T01:01:06;10.05;;;4.78;;
30303;SDS011;17112;48.636;10.152;2024-03-06T01:03:31;7.47;;;4.00;;
30303;SDS011;17112;48.636;10.152;2024-03-06T01:05:57;6.72;;;3.95;;
30303;SDS011;17112;48.636;10.152;2024-03-06T01:08:23;9.75;;;4.45;;
30303;SDS011;17112;48.636;10.152;2024-03-06T01:10:52;6.35;;;4.40;;
30303;SDS011;17112;48.636;10.152;2024-03-06T01:13:19;6.55;;;3.40;;
30303;SDS011;17112;48.636;10.152;2024-03-06T01:15:45;5.85;;;3.60;;
30303;SDS011;17112;48.636;10.152;2024-03-06T01:18:10;6.30;;;3.53;;
30303;SDS011;17112;48.636;10.152;2024-03-06T01:20:36;6.68;;;3.50;;
30303;SDS011;17112;48.636;10.152;2024-03-06T01:23:02;8.68;;;4.13;;
30303;SDS011;17112;48.636;10.152;2024-03-06T01:25:28;6.80;;;4.10;;
30303;SDS011;17112;48.636;10.152;2024-03-06T01:27:54;6.47;;;4.05;;
30303;SDS011;17112;48.636;10.152;2024-03-06T01:30:20;6.75;;;5.32;;
30303;SDS011;17112;48.636;10.152;2024-03-06T01:32:45;10.90;;;5.85;;
30303;SDS011;17112;48.636;10.152;2024-03-06T01:35:11;9.40;;;5.43;;
30303;SDS011;17112;48.636;10.152;2024-03-06T01:37:37;9.60;;;5.55;;
30303;SDS011;17112;48.636;10.152;2024-03-06T01:40:03;9.23;;;5.93;;
30303;SDS011;17112;48.636;10.152;2024-03-06T01:42:29;10.90;;;5.70;;
30303;SDS011;17112;48.636;10.152;2024-03-06T01:44:55;8.65;;;5.68;;
30303;SDS011;17112;48.636;10.152;2024-03-06T01:47:21;8.70;;;5.88;;
30303;SDS011;17112;48.636;10.152;2024-03-06T01:49:46;8.88;;;5.90;;
30303;SDS011;17112;48.636;10.152;2024-03-06T01:52:13;8.82;;;6.10;;
30303;SDS011;17112;48.636;10.152;2024-03-06T01:54:41;10.52;;;6.63;;
30303;SDS011;17112;48.636;10.152;2024-03-06T01:57:07;8.93;;;6.30;;
30303;SDS011;17112;48.636;10.152;2024-03-06T01:59:34;9.60;;;6.18;;
30303;SDS011;17112;48.636;10.152;2024-03-06T02:02:00;9.68;;;6.68;;
30303;SDS011;17112;48.636;10.152;2024-03-06T02:04:29;10.38;;;6.85;;
30303;SDS011;17112;48.636;10.152;2024-03-06T02:06:55;9.15;;;6.45;;
30303;SDS011;17112;48.636;10.152;2024-03-06T02:09:22;8.45;;;6.63;;
30303;SDS011;17112;48.636;10.152;2024-03-06T02:11:48;9.45;;;6.78;;
30303;SDS011;17112;48.636;10.152;2024-03-06T02:14:15;12.98;;;6.63;;
30303;SDS011;17112;48.636;10.152;2024-03-06T02:16:41;11.95;;;6.75;;
30303;SDS011;17112;48.636;10.152;2024-03-06T02:19:07;12.20;;;6.97;;
30303;SDS011;17112;48.636;10.152;2024-03-06T02:21:33;9.30;;;6.65;;
30303;SDS011;17112;48.636;10.152;2024-03-06T02:23:59;9.55;;;6.70;;
30303;SDS011;17112;48.636;10.152;2024-03-06T02:26:25;9.43;;;7.07;;
30303;SDS011;17112;48.636;10.152;2024-03-06T02:28:51;9.77;;;6.13;;
30303;SDS011;17112;48.636;10.152;2024-03-06T02:31:21;9.75;;;6.90;;
30303;SDS011;17112;48.636;10.152;2024-03-06T02:33:48;11.13;;;6.22;;
30303;SDS011;17112;48.636;10.152;2024-03-06T02:36:15;9.88;;;6.28;;
30303;SDS011;17112;48.636;10.152;2024-03-06T02:38:42;8.63;;;6.28;;
30303;SDS011;17112;48.636;10.152;2024-03-06T02:41:08;9.00;;;6.25;;
30303;SDS011;17112;48.636;10.152;2024-03-06T02:43:35;8.07;;;6.40;;
30303;SDS011;17112;48.636;10.152;2024-03-06T02:46:03;9.48;;;6.25;;
30303;SDS011;17112;48.636;10.152;2024-03-06T02:48:29;8.30;;;6.35;;
30303;SDS011;17112;48.636;10.152;2024-03-06T02:50:55;12.52;;;6.32;;
30303;SDS011;17112;48.636;10.152;2024-03-06T02:53:21;14.10;;;6.85;;
30303;SDS011;17112;48.636;10.152;2024-03-06T02:55:47;11.63;;;6.38;;
30303;SDS011;17112;48.636;10.152;2024-03-06T02:58:13;7.55;;;6.03;;
30303;SDS011;17112;48.636;10.152;2024-03-06T03:00:41;8.95;;;6.32;;
30303;SDS011;17112;48.636;10.152;2024-03-06T03:03:07;8.65;;;5.97;;
30303;SDS011;17112;48.636;10.152;2024-03-06T03:05:33;9.82;;;6.25;;
30303;SDS011;17112;48.636;10.152;2024-03-06T03:07:58;11.55;;;6.15;;
30303;SDS011;17112;48.636;10.152;2024-03-06T03:10:24;10.32;;;5.85;;
30303;SDS011;17112;48.636;10.152;2024-03-06T03:12:51;11.23;;;6.00;;
30303;SDS011;17112;48.636;10.152;2024-03-06T03:15:17;9.75;;;6.03;;
30303;SDS011;17112;48.636;10.152;2024-03-06T03:17:42;13.30;;;6.03;;
30303;SDS011;17112;48.636;10.152;2024-03-06T03:20:08;9.55;;;5.65;;
30303;SDS011;17112;48.636;10.152;2024-03-06T03:22:40;9.35;;;5.72;;
30303;SDS011;17112;48.636;10.152;2024-03-06T03:25:09;8.70;;;5.40;;
30303;SDS011;17112;48.636;10.152;2024-03-06T03:27:36;9.05;;;5.32;;
30303;SDS011;17112;48.636;10.152;2024-03-06T03:30:03;8.38;;;6.05;;
30303;SDS011;17112;48.636;10.152;2024-03-06T03:32:30;7.10;;;5.68;;
30303;SDS011;17112;48.636;10.152;2024-03-06T03:34:55;9.75;;;6.03;;
30303;SDS011;17112;48.636;10.152;2024-03-06T03:37:21;10.55;;;6.55;;
30303;SDS011;17112;48.636;10.152;2024-03-06T03:39:47;9.50;;;6.18;;
30303;SDS011;17112;48.636;10.152;2024-03-06T03:42:12;9.68;;;6.45;;
30303;SDS011;17112;48.636;10.152;2024-03-06T03:44:38;11.65;;;6.10;;
30303;SDS011;17112;48.636;10.152;2024-03-06T03:47:04;9.18;;;6.53;;
30303;SDS011;17112;48.636;10.152;2024-03-06T03:49:30;8.75;;;5.93;;
30303;SDS011;17112;48.636;10.152;2024-03-06T03:51:56;10.23;;;6.68;;
30303;SDS011;17112;48.636;10.152;2024-03-06T03:54:22;9.95;;;6.93;;
30303;SDS011;17112;48.636;10.152;2024-03-06T03:56:48;9.88;;;6.85;;
30303;SDS011;17112;48.636;10.152;2024-03-06T03:59:13;7.75;;;6.57;;
30303;SDS011;17112;48.636;10.152;2024-03-06T04:01:39;10.25;;;7.50;;
30303;SDS011;17112;48.636;10.152;2024-03-06T04:04:05;10.40;;;7.10;;
30303;SDS011;17112;48.636;10.152;2024-03-06T04:06:33;9.30;;;6.93;;
30303;SDS011;17112;48.636;10.152;2024-03-06T04:08:58;10.95;;;7.25;;
30303;SDS011;17112;48.636;10.152;2024-03-06T04:11:24;9.07;;;6.88;;
30303;SDS011;17112;48.636;10.152;2024-03-06T04:13:50;8.60;;;6.40;;
30303;SDS011;17112;48.636;10.152;2024-03-06T04:16:16;11.10;;;6.95;;
30303;SDS011;17112;48.636;10.152;2024-03-06T04:18:43;8.95;;;6.30;;
30303;SDS011;17112;48.636;10.152;2024-03-06T04:21:10;10.32;;;6.38;;
30303;SDS011;17112;48.636;10.152;2024-03-06T04:23:36;8.88;;;7.07;;
30303;SDS011;17112;48.636;10.152;2024-03-06T04:26:02;8.60;;;6.40;;
30303;SDS011;17112;48.636;10.152;2024-03-06T04:28:28;15.23;;;7.38;;
30303;SDS011;17112;48.636;10.152;2024-03-06T04:30:55;11.85;;;6.75;;
30303;SDS011;17112;48.636;10.152;2024-03-06T04:33:21;8.70;;;6.72;;
30303;SDS011;17112;48.636;10.152;2024-03-06T04:35:46;9.10;;;6.60;;
30303;SDS011;17112;48.636;10.152;2024-03-06T04:38:12;8.35;;;6.22;;
30303;SDS011;17112;48.636;10.152;2024-03-06T04:40:39;9.15;;;6.63;;
30303;SDS011;17112;48.636;10.152;2024-03-06T04:43:04;10.50;;;7.07;;
30303;SDS011;17112;48.636;10.152;2024-03-06T04:45:31;9.00;;;6.50;;
30303;SDS011;17112;48.636;10.152;2024-03-06T04:47:58;8.45;;;6.90;;
30303;SDS011;17112;48.636;10.152;2024-03-06T04:50:23;9.30;;;6.95;;
30303;SDS011;17112;48.636;10.152;2024-03-06T04:52:49;8.55;;;6.30;;
30303;SDS011;17112;48.636;10.152;2024-03-06T04:55:15;10.18;;;6.78;;
30303;SDS011;17112;48.636;10.152;2024-03-06T04:57:45;8.68;;;6.20;;
30303;SDS011;17112;48.636;10.152;2024-03-06T05:00:11;8.00;;;6.60;;
30303;SDS011;17112;48.636;10.152;2024-03-06T05:02:37;9.50;;;6.63;;
30303;SDS011;17112;48.636;10.152;2024-03-06T05:05:03;9.07;;;7.03;;
30303;SDS011;17112;48.636;10.152;2024-03-06T05:07:30;9.90;;;7.22;;
30303;SDS011;17112;48.636;10.152;2024-03-06T05:09:56;9.57;;;6.75;;
30303;SDS011;17112;48.636;10.152;2024-03-06T05:12:23;11.13;;;7.25;;
30303;SDS011;17112;48.636;10.152;2024-03-06T05:14:50;8.65;;;6.72;;
30303;SDS011;17112;48.636;10.152;2024-03-06T05:17:16;10.02;;;6.35;;
30303;SDS011;17112;48.636;10.152;2024-03-06T05:19:42;10.52;;;6.65;;
30303;SDS011;17112;48.636;10.152;2024-03-06T05:22:09;8.77;;;7.00;;
30303;SDS011;17112;48.636;10.152;2024-03-06T05:24:38;9.65;;;7.35;;
30303;SDS011;17112;48.636;10.152;2024-03-06T05:27:05;9.27;;;6.78;;
30303;SDS011;17112;48.636;10.152;2024-03-06T05:29:31;9.15;;;7.07;;
30303;SDS011;17112;48.636;10.152;2024-03-06T05:31:57;11.05;;;7.05;;
30303;SDS011;17112;48.636;10.152;2024-03-06T05:34:22;9.88;;;7.20;;
30303;SDS011;17112;48.636;10.152;2024-03-06T05:36:48;11.23;;;6.35;;
30303;SDS011;17112;48.636;10.152;2024-03-06T05:39:14;10.30;;;7.18;;
30303;SDS011;17112;48.636;10.152;2024-03-06T05:41:40;10.57;;;6.93;;
30303;SDS011;17112;48.636;10.152;2024-03-06T05:44:07;9.48;;;6.97;;
30303;SDS011;17112;48.636;10.152;2024-03-06T05:46:33;11.52;;;7.55;;
30303;SDS011;17112;48.636;10.152;2024-03-06T05:49:01;9.95;;;6.93;;
30303;SDS011;17112;48.636;10.152;2024-03-06T05:51:27;9.38;;;7.15;;
30303;SDS011;17112;48.636;10.152;2024-03-06T05:53:53;10.93;;;7.03;;
30303;SDS011;17112;48.636;10.152;2024-03-06T05:56:18;9.27;;;7.40;;
30303;SDS011;17112;48.636;10.152;2024-03-06T05:58:45;11.02;;;7.18;;
30303;SDS011;17112;48.636;10.152;2024-03-06T06:01:12;10.85;;;6.95;;
30303;SDS011;17112;48.636;10.152;2024-03-06T06:03:40;9.95;;;7.05;;
30303;SDS011;17112;48.636;10.152;2024-03-06T06:06:06;10.68;;;7.30;;
30303;SDS011;17112;48.636;10.152;2024-03-06T06:08:33;11.93;;;7.18;;
30303;SDS011;17112;48.636;10.152;2024-03-06T06:11:00;10.48;;;7.28;;
30303;SDS011;17112;48.636;10.152;2024-03-06T06:13:28;8.52;;;6.97;;
30303;SDS011;17112;48.636;10.152;2024-03-06T06:15:54;9.77;;;7.25;;
30303;SDS011;17112;48.636;10.152;2024-03-06T06:18:19;14.48;;;7.57;;
30303;SDS011;17112;48.636;10.152;2024-03-06T06:20:45;11.10;;;7.10;;
30303;SDS011;17112;48.636;10.152;2024-03-06T06:23:11;10.00;;;6.97;;
30303;SDS011;17112;48.636;10.152;2024-03-06T06:25:37;9.02;;;6.70;;
30303;SDS011;17112;48.636;10.152;2024-03-06T06:28:03;10.25;;;6.85;;
30303;SDS011;17112;48.636;10.152;2024-03-06T06:30:29;9.98;;;7.13;;
30303;SDS011;17112;48.636;10.152;2024-03-06T06:32:55;9.40;;;6.90;;
30303;SDS011;17112;48.636;10.152;2024-03-06T06:35:20;8.65;;;6.93;;
30303;SDS011;17112;48.636;10.152;2024-03-06T06:37:47;9.55;;;7.38;;
30303;SDS011;17112;48.636;10.152;2024-03-06T06:40:13;10.80;;;6.75;;
30303;SDS011;17112;48.636;10.152;2024-03-06T06:42:44;9.18;;;7.13;;
30303;SDS011;17112;48.636;10.152;2024-03-06T06:45:14;10.77;;;7.25;;
30303;SDS011;17112;48.636;10.152;2024-03-06T06:47:42;8.50;;;7.32;;
30303;SDS011;17112;48.636;10.152;2024-03-06T06:50:08;9.38;;;7.28;;
30303;SDS011;17112;48.636;10.152;2024-03-06T06:52:34;8.65;;;6.80;;
30303;SDS011;17112;48.636;10.152;2024-03-06T06:55:00;8.68;;;6.57;;
30303;SDS011;17112;48.636;10.152;2024-03-06T06:57:26;10.02;;;6.82;;
30303;SDS011;17112;48.636;10.152;2024-03-06T06:59:52;9.73;;;6.82;;
30303;SDS011;17112;48.636;10.152;2024-03-06T07:02:18;7.88;;;6.22;;
30303;SDS011;17112;48.636;10.152;2024-03-06T07:04:44;9.90;;;6.90;;
30303;SDS011;17112;48.636;10.152;2024-03-06T07:07:10;8.57;;;6.63;;
30303;SDS011;17112;48.636;10.152;2024-03-06T07:09:35;9.43;;;6.97;;
30303;SDS011;17112;48.636;10.152;2024-03-06T07:12:01;8.10;;;6.43;;
30303;SDS011;17112;48.636;10.152;2024-03-06T07:14:28;10.48;;;6.47;;
30303;SDS011;17112;48.636;10.152;2024-03-06T07:16:53;8.23;;;6.60;;
30303;SDS011;17112;48.636;10.152;2024-03-06T07:19:19;9.88;;;7.05;;
30303;SDS011;17112;48.636;10.152;2024-03-06T07:21:45;10.07;;;7.18;;
30303;SDS011;17112;48.636;10.152;2024-03-06T07:24:11;10.05;;;6.40;;
30303;SDS011;17112;48.636;10.152;2024-03-06T07:26:36;8.88;;;6.22;;
30303;SDS011;17112;48.636;10.152;2024-03-06T07:29:02;8.52;;;6.28;;
30303;SDS011;17112;48.636;10.152;2024-03-06T07:31:28;7.93;;;6.00;;
30303;SDS011;17112;48.636;10.152;2024-03-06T07:33:54;9.65;;;6.10;;
30303;SDS011;17112;48.636;10.152;2024-03-06T07:36:20;8.45;;;5.95;;
30303;SDS011;17112;48.636;10.152;2024-03-06T07:38:47;8.20;;;5.75;;
30303;SDS011;17112;48.636;10.152;2024-03-06T07:41:12;8.32;;;5.78;;
30303;SDS011;17112;48.636;10.152;2024-03-06T07:43:38;7.75;;;6.03;;
30303;SDS011;17112;48.636;10.152;2024-03-06T07:46:04;9.02;;;5.53;;
30303;SDS011;17112;48.636;10.152;2024-03-06T07:48:36;7.18;;;5.38;;
30303;SDS011;17112;48.636;10.152;2024-03-06T07:51:04;7.97;;;6.07;;
30303;SDS011;17112;48.636;10.152;2024-03-06T07:53:29;7.72;;;5.70;;
30303;SDS011;17112;48.636;10.152;2024-03-06T07:55:55;7.97;;;5.60;;
30303;SDS011;17112;48.636;10.152;2024-03-06T07:58:21;5.97;;;5.05;;
30303;SDS011;17112;48.636;10.152;2024-03-06T08:00:47;6.93;;;5.53;;
30303;SDS011;17112;48.636;10.152;2024-03-06T08:03:13;7.75;;;5.53;;
30303;SDS011;17112;48.636;10.152;2024-03-06T08:05:39;8.75;;;5.70;;
30303;SDS011;17112;48.636;10.152;2024-03-06T08:08:04;6.38;;;5.28;;
30303;SDS011;17112;48.636;10.152;2024-03-06T08:10:30;8.00;;;6.13;;
30303;SDS011;17112;48.636;10.152;2024-03-06T08:12:57;6.22;;;5.30;;
30303;SDS011;17112;48.636;10.152;2024-03-06T08:15:23;7.45;;;5.53;;
30303;SDS011;17112;48.636;10.152;2024-03-06T08:17:49;7.93;;;5.90;;
30303;SDS011;17112;48.636;10.152;2024-03-06T08:20:14;7.68;;;5.55;;
30303;SDS011;17112;48.636;10.152;2024-03-06T08:22:41;8.38;;;6.03;;
30303;SDS011;17112;48.636;10.152;2024-03-06T08:25:07;7.68;;;5.68;;
30303;SDS011;17112;48.636;10.152;2024-03-06T08:27:34;9.85;;;5.32;;
30303;SDS011;17112;48.636;10.152;2024-03-06T08:30:02;7.75;;;5.50;;
30303;SDS011;17112;48.636;10.152;2024-03-06T08:32:30;8.60;;;5.47;;
30303;SDS011;17112;48.636;10.152;2024-03-06T08:35:10;6.45;;;5.00;;
30303;SDS011;17112;48.636;10.152;2024-03-06T08:37:40;6.32;;;4.75;;
30303;SDS011;17112;48.636;10.152;2024-03-06T08:40:09;7.80;;;5.25;;
30303;SDS011;17112;48.636;10.152;2024-03-06T08:42:39;6.10;;;4.53;;
30303;SDS011;17112;48.636;10.152;2024-03-06T08:45:07;7.90;;;5.32;;
30303;SDS011;17112;48.636;10.152;2024-03-06T08:47:34;6.97;;;5.47;;
30303;SDS011;17112;48.636;10.152;2024-03-06T08:50:00;5.97;;;5.18;;
30303;SDS011;17112;48.636;10.152;2024-03-06T08:52:27;7.18;;;5.30;;
30303;SDS011;17112;48.636;10.152;2024-03-06T08:54:53;8.52;;;5.78;;
30303;SDS011;17112;48.636;10.152;2024-03-06T08:57:18;9.25;;;5.45;;
30303;SDS011;17112;48.636;10.152;2024-03-06T08:59:46;10.93;;;6.18;;
30303;SDS011;17112;48.636;10.152;2024-03-06T09:02:12;10.68;;;6.35;;
30303;SDS011;17112;48.636;10.152;2024-03-06T09:04:43;9.27;;;6.05;;
30303;SDS011;17112;48.636;10.152;2024-03-06T09:07:10;8.98;;;6.22;;
30303;SDS011;17112;48.636;10.152;2024-03-06T09:09:36;10.13;;;6.63;;
30303;SDS011;17112;48.636;10.152;2024-03-06T09:12:05;8.07;;;5.70;;
30303;SDS011;17112;48.636;10.152;2024-03-06T09:14:32;6.10;;;5.00;;
30303;SDS011;17112;48.636;10.152;2024-03-06T09:16:58;8.52;;;5.40;;
30303;SDS011;17112;48.636;10.152;2024-03-06T09:19:24;7.80;;;5.55;;
30303;SDS011;17112;48.636;10.152;2024-03-06T09:21:50;6.93;;;5.15;;
30303;SDS011;17112;48.636;10.152;2024-03-06T09:24:15;8.52;;;6.18;;
30303;SDS011;17112;48.636;10.152;2024-03-06T09:26:41;7.30;;;5.32;;
30303;SDS011;17112;48.636;10.152;2024-03-06T09:29:08;7.45;;;5.47;;
30303;SDS011;17112;48.636;10.152;2024-03-06T09:31:34;8.88;;;5.78;;
30303;SDS011;17112;48.636;10.152;2024-03-06T09:33:59;10.35;;;6.18;;
30303;SDS011;17112;48.636;10.152;2024-03-06T09:36:25;9.60;;;6.10;;
30303;SDS011;17112;48.636;10.152;2024-03-06T09:38:51;8.38;;;6.03;;
30303;SDS011;17112;48.636;10.152;2024-03-06T09:41:17;14.48;;;6.07;;
30303;SDS011;17112;48.636;10.152;2024-03-06T09:43:44;9.73;;;6.25;;
30303;SDS011;17112;48.636;10.152;2024-03-06T09:46:10;7.63;;;5.78;;
30303;SDS011;17112;48.636;10.152;2024-03-06T09:48:36;8.48;;;5.88;;
30303;SDS011;17112;48.636;10.152;2024-03-06T09:51:03;8.55;;;5.88;;
30303;SDS011;17112;48.636;10.152;2024-03-06T09:53:30;9.35;;;6.28;;
30303;SDS011;17112;48.636;10.152;2024-03-06T09:55:56;9.70;;;5.85;;
30303;SDS011;17112;48.636;10.152;2024-03-06T09:58:23;9.07;;;6.13;;
30303;SDS011;17112;48.636;10.152;2024-03-06T10:00:49;8.07;;;5.50;;
30303;SDS011;17112;48.636;10.152;2024-03-06T10:03:16;9.13;;;6.00;;
30303;SDS011;17112;48.636;10.152;2024-03-06T10:05:42;7.95;;;5.80;;
30303;SDS011;17112;48.636;10.152;2024-03-06T10:08:08;11.25;;;6.68;;
30303;SDS011;17112;48.636;10.152;2024-03-06T10:10:35;8.63;;;6.13;;
30303;SDS011;17112;48.636;10.152;2024-03-06T10:13:01;9.05;;;6.15;;
30303;SDS011;17112;48.636;10.152;2024-03-06T10:15:27;10.35;;;6.65;;
30303;SDS011;17112;48.636;10.152;2024-03-06T10:20:40;10.02;;;6.28;;
30303;SDS011;17112;48.636;10.152;2024-03-06T10:23:09;8.02;;;5.65;;
30303;SDS011;17112;48.636;10.152;2024-03-06T10:25:35;8.25;;;6.18;;
30303;SDS011;17112;48.636;10.152;2024-03-06T10:30:32;8.13;;;5.88;;
30303;SDS011;17112;48.636;10.152;2024-03-06T10:33:00;10.82;;;6.07;;
30303;SDS011;17112;48.636;10.152;2024-03-06T10:35:30;9.68;;;5.65;;
30303;SDS011;17112;48.636;10.152;2024-03-06T10:38:03;8.80;;;6.43;;
30303;SDS011;17112;48.636;10.152;2024-03-06T10:40:33;10.48;;;6.20;;
30303;SDS011;17112;48.636;10.152;2024-03-06T10:43:01;8.65;;;6.43;;
30303;SDS011;17112;48.636;10.152;2024-03-06T10:45:37;7.90;;;6.13;;
30303;SDS011;17112;48.636;10.152;2024-03-06T10:48:06;9.20;;;6.32;;
30303;SDS011;17112;48.636;10.152;2024-03-06T10:50:33;9.73;;;6.25;;
30303;SDS011;17112;48.636;10.152;2024-03-06T10:52:59;8.55;;;5.97;;
30303;SDS011;17112;48.636;10.152;2024-03-06T10:55:27;9.85;;;6.80;;
30303;SDS011;17112;48.636;10.152;2024-03-06T10:57:55;8.90;;;6.40;;
30303;SDS011;17112;48.636;10.152;2024-03-06T11:00:22;8.73;;;6.57;;
30303;SDS011;17112;48.636;10.152;2024-03-06T11:02:53;9.35;;;6.45;;
30303;SDS011;17112;48.636;10.152;2024-03-06T11:05:20;10.38;;;6.65;;
30303;SDS011;17112;48.636;10.152;2024-03-06T11:07:45;10.98;;;6.70;;
30303;SDS011;17112;48.636;10.152;2024-03-06T11:10:11;10.23;;;6.80;;
30303;SDS011;17112;48.636;10.152;2024-03-06T11:12:41;8.57;;;6.07;;
30303;SDS011;17112;48.636;10.152;2024-03-06T11:17:38;9.38;;;6.07;;
30303;SDS011;17112;48.636;10.152;2024-03-06T11:28:37;9.40;;;6.13;;
30303;SDS011;17112;48.636;10.152;2024-03-06T11:31:08;7.80;;;5.82;;
30303;SDS011;17112;48.636;10.152;2024-03-06T11:33:44;9.02;;;5.90;;
30303;SDS011;17112;48.636;10.152;2024-03-06T11:36:14;8.30;;;6.07;;
30303;SDS011;17112;48.636;10.152;2024-03-06T11:41:29;9.07;;;6.32;;
30303;SDS011;17112;48.636;10.152;2024-03-06T11:43:59;9.10;;;6.22;;
30303;SDS011;17112;48.636;10.152;2024-03-06T11:46:44;8.07;;;5.32;;
30303;SDS011;17112;48.636;10.152;2024-03-06T11:49:17;8.30;;;5.38;;
30303;SDS011;17112;48.636;10.152;2024-03-06T11:51:50;7.55;;;5.53;;
30303;SDS011;17112;48.636;10.152;2024-03-06T11:54:16;9.23;;;4.95;;
30303;SDS011;17112;48.636;10.152;2024-03-06T11:56:48;7.60;;;5.28;;
30303;SDS011;17112;48.636;10.152;2024-03-06T11:59:16;6.53;;;5.25;;
30303;SDS011;17112;48.636;10.152;2024-03-06T12:01:42;6.57;;;5.18;;
30303;SDS011;17112;48.636;10.152;2024-03-06T12:04:07;6.47;;;4.55;;
30303;SDS011;17112;48.636;10.152;2024-03-06T12:06:33;5.90;;;4.32;;
30303;SDS011;17112;48.636;10.152;2024-03-06T12:08:59;6.30;;;4.93;;
30303;SDS011;17112;48.636;10.152;2024-03-06T12:11:25;6.63;;;4.88;;
30303;SDS011;17112;48.636;10.152;2024-03-06T12:13:53;8.40;;;5.43;;
30303;SDS011;17112;48.636;10.152;2024-03-06T12:16:19;10.68;;;6.18;;
30303;SDS011;17112;48.636;10.152;2024-03-06T12:18:45;10.57;;;6.20;;
30303;SDS011;17112;48.636;10.152;2024-03-06T12:21:11;11.25;;;6.57;;
30303;SDS011;17112;48.636;10.152;2024-03-06T12:23:38;10.05;;;6.72;;
30303;SDS011;17112;48.636;10.152;2024-03-06T12:28:38;9.48;;;6.05;;
30303;SDS011;17112;48.636;10.152;2024-03-06T12:31:05;11.68;;;6.35;;
30303;SDS011;17112;48.636;10.152;2024-03-06T12:33:33;9.93;;;6.45;;
30303;SDS011;17112;48.636;10.152;2024-03-06T12:36:08;9.00;;;6.25;;
30303;SDS011;17112;48.636;10.152;2024-03-06T12:38:36;11.27;;;6.63;;
30303;SDS011;17112;48.636;10.152;2024-03-06T12:41:02;10.25;;;7.22;;
30303;SDS011;17112;48.636;10.152;2024-03-06T12:43:29;14.82;;;8.48;;
30303;SDS011;17112;48.636;10.152;2024-03-06T12:45:55;14.45;;;8.70;;
30303;SDS011;17112;48.636;10.152;2024-03-06T12:48:22;11.50;;;7.78;;
30303;SDS011;17112;48.636;10.152;2024-03-06T12:50:48;13.93;;;7.85;;
30303;SDS011;17112;48.636;10.152;2024-03-06T12:53:22;12.82;;;7.93;;
30303;SDS011;17112;48.636;10.152;2024-03-06T12:55:48;10.88;;;7.20;;
30303;SDS011;17112;48.636;10.152;2024-03-06T12:58:14;12.00;;;7.88;;
30303;SDS011;17112;48.636;10.152;2024-03-06T13:00:40;12.50;;;7.72;;
30303;SDS011;17112;48.636;10.152;2024-03-06T13:03:06;16.38;;;8.45;;
30303;SDS011;17112;48.636;10.152;2024-03-06T13:05:32;11.95;;;7.70;;
30303;SDS011;17112;48.636;10.152;2024-03-06T13:07:58;12.05;;;8.57;;
30303;SDS011;17112;48.636;10.152;2024-03-06T13:10:27;10.23;;;7.05;;
30303;SDS011;17112;48.636;10.152;2024-03-06T13:12:53;9.95;;;7.03;;
30303;SDS011;17112;48.636;10.152;2024-03-06T13:15:19;11.57;;;6.95;;
30303;SDS011;17112;48.636;10.152;2024-03-06T13:17:45;10.32;;;7.13;;
30303;SDS011;17112;48.636;10.152;2024-03-06T13:20:11;12.18;;;7.47;;
30303;SDS011;17112;48.636;10.152;2024-03-06T13:22:37;14.20;;;8.00;;
30303;SDS011;17112;48.636;10.152;2024-03-06T13:25:03;10.38;;;6.95;;
30303;SDS011;17112;48.636;10.152;2024-03-06T13:27:30;11.82;;;7.25;;
30303;SDS011;17112;48.636;10.152;2024-03-06T13:29:56;17.33;;;8.65;;
30303;SDS011;17112;48.636;10.152;2024-03-06T13:32:22;12.45;;;7.60;;
30303;SDS011;17112;48.636;10.152;2024-03-06T13:34:47;12.50;;;8.25;;
30303;SDS011;17112;48.636;10.152;2024-03-06T13:37:14;14.65;;;9.07;;
30303;SDS011;17112;48.636;10.152;2024-03-06T13:39:40;15.50;;;9.20;;
30303;SDS011;17112;48.636;10.152;2024-03-06T13:42:07;13.98;;;9.10;;
30303;SDS011;17112;48.636;10.152;2024-03-06T13:44:40;19.55;;;10.63;;
30303;SDS011;17112;48.636;10.152;2024-03-06T13:47:14;17.63;;;9.85;;
30303;SDS011;17112;48.636;10.152;2024-03-06T13:49:41;17.25;;;10.57;;
30303;SDS011;17112;48.636;10.152;2024-03-06T13:52:08;21.23;;;11.50;;
30303;SDS011;17112;48.636;10.152;2024-03-06T13:54:40;22.05;;;12.48;;
30303;SDS011;17112;48.636;10.152;2024-03-06T13:57:07;22.02;;;13.02;;
30303;SDS011;17112;48.636;10.152;2024-03-06T13:59:34;25.33;;;12.88;;
30303;SDS011;17112;48.636;10.152;2024-03-06T14:02:00;21.27;;;12.30;;
30303;SDS011;17112;48.636;10.152;2024-03-06T14:04:27;25.10;;;13.63;;
30303;SDS011;17112;48.636;10.152;2024-03-06T14:06:54;27.13;;;14.20;;
30303;SDS011;17112;48.636;10.152;2024-03-06T14:09:22;27.95;;;13.73;;
30303;SDS011;17112;48.636;10.152;2024-03-06T14:11:49;27.00;;;14.02;;
30303;SDS011;17112;48.636;10.152;2024-03-06T14:14:15;26.92;;;15.43;;
30303;SDS011;17112;48.636;10.152;2024-03-06T14:16:41;25.67;;;14.88;;
30303;SDS011;17112;48.636;10.152;2024-03-06T14:19:07;27.25;;;15.40;;
30303;SDS011;17112;48.636;10.152;2024-03-06T14:21:33;26.95;;;15.68;;
30303;SDS011;17112;48.636;10.152;2024-03-06T14:24:00;29.40;;;15.50;;
30303;SDS011;17112;48.636;10.152;2024-03-06T14:26:30;31.60;;;16.30;;
30303;SDS011;17112;48.636;10.152;2024-03-06T14:28:57;27.67;;;15.68;;
30303;SDS011;17112;48.636;10.152;2024-03-06T14:31:24;25.90;;;14.57;;
30303;SDS011;17112;48.636;10.152;2024-03-06T14:33:49;28.70;;;16.30;;
30303;SDS011;17112;48.636;10.152;2024-03-06T14:36:15;28.67;;;16.35;;
30303;SDS011;17112;48.636;10.152;2024-03-06T14:38:42;30.83;;;16.35;;
30303;SDS011;17112;48.636;10.152;2024-03-06T14:41:09;30.65;;;16.13;;
30303;SDS011;17112;48.636;10.152;2024-03-06T14:43:38;30.98;;;17.90;;
30303;SDS011;17112;48.636;10.152;2024-03-06T14:46:06;32.60;;;17.40;;